createdAt,value
2019-04-10T00:00:47.674Z,54.45
2019-04-10T00:03:25.716Z,54.37
2019-04-10T00:05:46.171Z,54.63
2019-04-10T00:08:14.481Z,54.42
2019-04-10T00:10:43.729Z,54.93
2019-04-10T00:13:12.190Z,55.11
2019-04-10T00:15:40.367Z,54.62
2019-04-10T00:18:09.457Z,54.64
2019-04-10T00:20:37.647Z,55.18
2019-04-10T00:23:06.792Z,54.95
2019-04-10T00:25:35.345Z,54.77
2019-04-10T00:28:03.578Z,55.22
2019-04-10T00:30:31.779Z,55.04
2019-04-10T00:33:00.564Z,55.44
2019-04-10T00:35:29.735Z,54.73
2019-04-10T00:37:58.121Z,54.64
2019-04-10T00:40:26.400Z,56.64
2019-04-10T00:42:56.983Z,55.68
2019-04-10T00:45:25.106Z,54.81
2019-04-10T00:47:53.462Z,55.25
2019-04-10T00:50:22.329Z,55.55
2019-04-10T00:52:50.624Z,55.07
2019-04-10T00:55:19.666Z,55.27
2019-04-10T00:57:47.992Z,55.31
2019-04-10T01:00:16.941Z,56.16
2019-04-10T01:02:45.185Z,56.38
2019-04-10T01:05:13.479Z,56.59
2019-04-10T01:07:44.191Z,56.22
2019-04-10T01:10:12.222Z,56.59
2019-04-10T01:12:40.547Z,55.69
2019-04-10T01:15:10.026Z,55.49
2019-04-10T01:17:38.312Z,56.70
2019-04-10T01:20:07.157Z,56.94
2019-04-10T01:22:35.582Z,56.80
2019-04-10T01:25:06.083Z,56.47
2019-04-10T01:27:34.331Z,57.12
2019-04-10T01:30:02.556Z,56.86
2019-04-10T01:32:30.759Z,57.01
2019-04-10T01:35:00.147Z,57.00
2019-04-10T01:37:29.051Z,56.58
2019-04-10T01:39:57.387Z,57.59
2019-04-10T01:42:25.593Z,57.11
2019-04-10T01:44:53.817Z,57.14
2019-04-10T01:47:22.070Z,57.02
2019-04-10T01:49:50.358Z,57.47
2019-04-10T01:52:18.568Z,58.02
2019-04-10T01:54:47.140Z,57.78
2019-04-10T01:57:16.423Z,57.88
2019-04-10T01:59:45.898Z,58.66
2019-04-10T02:02:16.867Z,58.25
2019-04-10T02:04:45.251Z,57.72
2019-04-10T02:07:13.901Z,57.73
2019-04-10T02:09:42.159Z,58.59
2019-04-10T02:12:10.421Z,58.17
2019-04-10T02:14:38.669Z,58.56
2019-04-10T02:17:06.826Z,58.93
2019-04-10T02:19:35.063Z,58.75
2019-04-10T02:22:04.337Z,59.17
2019-04-10T02:24:33.389Z,59.06
2019-04-10T02:27:02.406Z,58.77
2019-04-10T02:29:31.497Z,59.28
2019-04-10T02:31:59.912Z,58.60
2019-04-10T02:34:28.417Z,59.15
2019-04-10T02:36:58.484Z,58.71
2019-04-10T02:39:34.195Z,58.66
2019-04-10T02:41:58.253Z,59.05
2019-04-10T02:44:28.406Z,58.67
2019-04-10T02:46:59.092Z,58.97
2019-04-10T02:49:28.010Z,58.82
2019-04-10T02:51:57.031Z,59.56
2019-04-10T02:54:26.926Z,58.52
2019-04-10T02:56:56.769Z,59.34
2019-04-10T02:59:25.148Z,59.30
2019-04-10T03:01:53.508Z,58.69
2019-04-10T03:04:21.664Z,59.49
2019-04-10T03:06:51.394Z,59.22
2019-04-10T03:09:40.541Z,58.79
2019-04-10T03:11:49.923Z,59.24
2019-04-10T03:14:18.958Z,58.62
2019-04-10T03:16:47.929Z,59.22
2019-04-10T03:19:17.055Z,58.93
2019-04-10T03:21:45.292Z,59.10
2019-04-10T03:24:13.894Z,59.17
2019-04-10T03:26:42.126Z,59.55
2019-04-10T03:29:10.355Z,60.00
2019-04-10T03:31:40.844Z,59.84
2019-04-10T03:34:21.799Z,59.33
2019-04-10T03:36:48.894Z,58.93
2019-04-10T03:39:17.463Z,59.27
2019-04-10T03:41:45.713Z,59.66
2019-04-10T03:44:14.540Z,59.46
2019-04-10T03:46:43.032Z,59.37
2019-04-10T03:49:11.767Z,59.66
2019-04-10T03:51:40.840Z,60.11
2019-04-10T03:54:09.183Z,60.24
2019-04-10T03:56:38.150Z,60.77
2019-04-10T03:59:06.485Z,60.60
2019-04-10T04:01:35.362Z,60.17
2019-04-10T04:04:04.880Z,60.41
2019-04-10T04:06:33.396Z,61.35
2019-04-10T04:09:08.879Z,60.42
2019-04-10T04:11:31.640Z,60.31
2019-04-10T04:13:59.874Z,60.55
2019-04-10T04:16:28.040Z,60.03
2019-04-10T04:18:56.246Z,59.77
2019-04-10T04:21:24.465Z,60.08
2019-04-10T04:23:53.259Z,60.61
2019-04-10T04:26:21.500Z,60.75
2019-04-10T04:28:49.706Z,61.21
2019-04-10T04:31:18.150Z,60.41
2019-04-10T04:33:46.924Z,61.32
2019-04-10T04:36:16.003Z,61.25
2019-04-10T04:38:45.224Z,61.54
2019-04-10T04:41:13.538Z,62.25
2019-04-10T04:43:43.398Z,61.69
2019-04-10T04:46:12.060Z,60.93
2019-04-10T04:48:41.208Z,61.57
2019-04-10T04:51:09.500Z,61.35
2019-04-10T04:53:37.705Z,62.33
2019-04-10T04:56:05.929Z,62.19
2019-04-10T04:58:34.173Z,62.83
2019-04-10T05:01:02.361Z,62.35
2019-04-10T05:03:30.577Z,61.72
2019-04-10T05:05:58.799Z,62.89
2019-04-10T05:08:28.048Z,63.30
2019-04-10T05:10:56.313Z,62.11
2019-04-10T05:13:24.513Z,62.63
2019-04-10T05:15:53.369Z,63.23
2019-04-10T05:18:22.980Z,63.08
2019-04-10T05:20:52.406Z,62.66
2019-04-10T05:23:20.828Z,62.39
2019-04-10T05:25:49.795Z,62.31
2019-04-10T05:28:18.997Z,62.07
2019-04-10T05:30:47.652Z,62.57
2019-04-10T05:33:16.249Z,62.55
2019-04-10T05:35:44.449Z,62.16
2019-04-10T05:38:13.525Z,62.63
2019-04-10T05:40:42.227Z,63.07
2019-04-10T05:43:11.471Z,62.30
2019-04-10T05:45:40.125Z,61.94
2019-04-10T05:48:08.812Z,62.01
2019-04-10T05:50:37.816Z,62.13
2019-04-10T05:53:06.147Z,62.29
2019-04-10T05:55:34.355Z,62.68
2019-04-10T05:58:02.576Z,62.81
2019-04-10T06:00:30.791Z,63.21
2019-04-10T06:02:59.019Z,62.49
2019-04-10T06:05:27.224Z,62.85
2019-04-10T06:07:55.486Z,62.58
2019-04-10T06:10:24.654Z,62.53
2019-04-10T06:12:53.105Z,62.16
2019-04-10T06:15:21.322Z,62.31
2019-04-10T06:17:49.553Z,62.80
2019-04-10T06:20:17.756Z,62.57
2019-04-10T06:22:47.227Z,62.75
2019-04-10T06:25:16.378Z,62.50
2019-04-10T06:27:45.280Z,62.70
2019-04-10T06:30:13.492Z,62.06
2019-04-10T06:32:41.716Z,62.65
2019-04-10T06:35:11.023Z,62.25
2019-04-10T06:37:40.088Z,61.99
2019-04-10T06:40:17.066Z,62.27
2019-04-10T06:42:46.109Z,61.54
2019-04-10T06:45:09.291Z,61.76
2019-04-10T06:47:38.225Z,62.04
2019-04-10T06:50:07.030Z,61.86
2019-04-10T06:52:35.259Z,61.56
2019-04-10T06:55:05.034Z,60.99
2019-04-10T06:57:45.103Z,60.53
2019-04-10T07:00:06.767Z,60.18
2019-04-10T07:02:37.131Z,61.14
2019-04-10T07:05:17.475Z,60.72
2019-04-10T07:07:51.915Z,60.48
2019-04-10T07:10:26.084Z,61.15
2019-04-10T07:12:45.787Z,60.60
2019-04-10T07:15:18.511Z,59.60
2019-04-10T07:17:44.834Z,59.75
2019-04-10T07:20:15.473Z,59.92
2019-04-10T07:22:46.539Z,60.43
2019-04-10T07:25:14.384Z,60.04
2019-04-10T07:27:44.053Z,61.02
2019-04-10T07:30:12.347Z,60.17
2019-04-10T07:32:44.256Z,59.25
2019-04-10T07:35:12.757Z,59.41
2019-04-10T07:37:40.503Z,58.83
2019-04-10T07:40:08.894Z,58.53
2019-04-10T07:42:40.276Z,58.72
2019-04-10T07:45:07.047Z,57.62
2019-04-10T07:47:35.619Z,57.86
2019-04-10T07:50:08.591Z,57.05
2019-04-10T07:52:37.169Z,57.71
2019-04-10T07:55:06.608Z,57.39
2019-04-10T07:57:34.919Z,58.41
2019-04-10T08:00:03.262Z,56.91
2019-04-10T08:02:31.737Z,56.82
2019-04-10T08:05:00.185Z,56.74
2019-04-10T08:07:32.596Z,55.82
2019-04-10T08:09:59.290Z,55.93
2019-04-10T08:12:37.618Z,56.58
2019-04-10T08:14:57.540Z,55.80
2019-04-10T08:17:26.269Z,56.60
2019-04-10T08:19:54.508Z,55.88
2019-04-10T08:22:22.786Z,55.68
2019-04-10T08:24:51.246Z,55.79
2019-04-10T08:27:19.558Z,56.39
2019-04-10T08:29:48.481Z,56.46
2019-04-10T08:32:16.754Z,55.08
2019-04-10T08:34:45.008Z,56.28
2019-04-10T08:37:14.422Z,54.89
2019-04-10T08:39:45.967Z,53.94
2019-04-10T08:42:12.777Z,55.76
2019-04-10T08:44:41.008Z,55.69
2019-04-10T08:47:09.235Z,53.54
2019-04-10T08:49:37.448Z,52.67
2019-04-10T08:52:06.172Z,54.28
2019-04-10T08:54:34.576Z,53.63
2019-04-10T08:57:03.311Z,53.37
2019-04-10T08:59:31.923Z,54.17
2019-04-10T09:02:00.199Z,53.09
2019-04-10T09:04:28.761Z,52.40
2019-04-10T09:06:57.955Z,52.83
2019-04-10T09:09:27.866Z,51.15
2019-04-10T09:11:56.264Z,52.61
2019-04-10T09:14:25.230Z,50.99
2019-04-10T09:16:55.208Z,51.03
2019-04-10T09:19:23.484Z,52.87
2019-04-10T09:21:52.875Z,51.54
2019-04-10T09:24:21.680Z,51.53
2019-04-10T09:26:50.817Z,51.53
2019-04-10T09:29:21.774Z,51.14
2019-04-10T09:31:50.241Z,50.99
2019-04-10T09:34:18.578Z,51.63
2019-04-10T09:36:46.802Z,51.59
2019-04-10T09:39:15.081Z,50.99
2019-04-10T09:41:43.923Z,50.33
2019-04-10T09:44:12.398Z,51.23
2019-04-10T09:46:40.883Z,51.30
2019-04-10T09:49:09.176Z,50.30
2019-04-10T09:51:38.296Z,48.64
2019-04-10T09:54:07.785Z,48.98
2019-04-10T09:56:36.415Z,48.84
2019-04-10T09:59:05.378Z,48.42
2019-04-10T10:01:33.863Z,49.41
2019-04-10T10:04:02.007Z,50.73
2019-04-10T10:06:34.701Z,47.43
2019-04-10T10:09:00.537Z,45.53
2019-04-10T10:11:28.755Z,47.60
2019-04-10T10:13:56.964Z,46.23
2019-04-10T10:16:25.506Z,47.27
2019-04-10T10:18:54.070Z,47.22
2019-04-10T10:21:22.405Z,46.55
2019-04-10T10:23:50.625Z,45.82
2019-04-10T10:26:19.705Z,45.79
2019-04-10T10:28:48.171Z,44.89
2019-04-10T10:31:16.320Z,44.84
2019-04-10T10:33:44.536Z,43.84
2019-04-10T10:36:13.705Z,44.95
2019-04-10T10:38:41.979Z,44.37
2019-04-10T10:41:10.185Z,45.77
2019-04-10T10:43:38.433Z,42.03
2019-04-10T10:46:07.153Z,41.21
2019-04-10T10:48:35.809Z,42.30
2019-04-10T10:51:04.623Z,41.25
2019-04-10T10:53:32.950Z,37.60
2019-04-10T10:56:02.157Z,36.88
2019-04-10T10:58:30.469Z,32.84
2019-04-10T11:00:59.761Z,32.28
2019-04-10T11:03:28.146Z,33.87
2019-04-10T11:06:57.789Z,31.94
2019-04-10T11:08:33.867Z,32.68
2019-04-10T11:11:06.261Z,33.54
2019-04-10T11:13:34.785Z,32.42
2019-04-10T11:16:07.103Z,31.01
2019-04-10T11:18:35.246Z,28.45
2019-04-10T11:21:08.045Z,29.42
2019-04-10T11:23:33.841Z,27.80
2019-04-10T11:26:02.311Z,29.79
2019-04-10T11:28:32.254Z,29.23
2019-04-10T11:31:01.402Z,28.71
2019-04-10T11:33:30.747Z,28.93
2019-04-10T11:36:00.139Z,28.34
2019-04-10T11:38:29.075Z,27.56
2019-04-10T11:43:27.889Z,28.10
2019-04-10T11:45:59.287Z,30.54
2019-04-10T11:48:29.098Z,32.46
2019-04-10T11:51:00.684Z,32.72
2019-04-10T11:53:27.362Z,31.78
2019-04-10T11:55:57.033Z,31.80
2019-04-10T11:58:28.956Z,31.10
2019-04-10T12:00:58.080Z,27.94
2019-04-10T12:03:27.002Z,30.10
2019-04-10T12:05:57.208Z,30.72
2019-04-10T12:13:26.624Z,28.46
2019-04-10T12:15:54.877Z,29.34
2019-04-10T12:18:23.079Z,30.98
2019-04-10T12:20:51.581Z,31.00
2019-04-10T12:23:20.872Z,30.14
2019-04-10T12:25:49.430Z,28.45
2019-04-10T12:28:17.966Z,29.51
2019-04-10T12:30:46.250Z,29.43
2019-04-10T12:33:14.454Z,29.00
2019-04-10T12:35:42.761Z,27.83
2019-04-10T12:38:13.249Z,29.13
2019-04-10T12:40:40.918Z,28.38
2019-04-10T12:43:09.135Z,28.75
2019-04-10T12:45:38.158Z,28.87
2019-04-10T12:48:06.390Z,28.12
2019-04-10T12:50:34.647Z,28.07
2019-04-10T12:53:03.035Z,28.66
2019-04-10T12:55:32.322Z,28.34
2019-04-10T12:58:08.419Z,28.95
2019-04-10T13:00:31.641Z,28.46
2019-04-10T13:03:00.810Z,27.78
2019-04-10T13:05:29.345Z,29.46
2019-04-10T13:07:59.165Z,28.01
2019-04-10T13:10:27.566Z,28.92
2019-04-10T13:12:55.779Z,29.90
2019-04-10T13:15:23.995Z,29.18
2019-04-10T13:17:53.148Z,28.48
2019-04-10T13:20:21.904Z,27.39
2019-04-10T13:22:50.671Z,28.23
2019-04-10T13:25:19.007Z,29.10
2019-04-10T13:27:47.371Z,28.27
2019-04-10T13:30:16.556Z,28.76
2019-04-10T13:32:44.964Z,28.01
2019-04-10T13:35:14.407Z,26.61
2019-04-10T13:37:43.482Z,26.79
2019-04-10T13:40:13.087Z,26.95
2019-04-10T13:42:41.409Z,29.03
2019-04-10T13:45:09.621Z,30.25
2019-04-10T13:47:38.681Z,30.35
2019-04-10T13:50:08.496Z,31.33
2019-04-10T13:52:38.708Z,29.69
2019-04-10T13:55:10.227Z,30.50
2019-04-10T13:57:39.284Z,29.08
2019-04-10T14:00:09.377Z,28.09
2019-04-10T14:02:37.998Z,27.92
2019-04-10T14:05:11.609Z,28.44
2019-04-10T14:07:40.229Z,31.41
2019-04-10T14:10:08.588Z,29.45
2019-04-10T14:12:37.185Z,28.08
2019-04-10T14:15:05.574Z,29.22
2019-04-10T14:17:33.830Z,29.33
2019-04-10T14:20:02.880Z,28.38
2019-04-10T14:22:31.613Z,29.29
2019-04-10T14:25:00.937Z,29.75
2019-04-10T14:27:30.264Z,27.45
2019-04-10T14:29:58.764Z,28.92
2019-04-10T14:32:37.608Z,27.70
2019-04-10T14:35:08.645Z,27.61
2019-04-10T14:37:37.959Z,29.27
2019-04-10T14:40:08.403Z,26.09
2019-04-10T14:42:36.659Z,28.65
2019-04-10T14:45:06.740Z,26.89
2019-04-10T14:47:35.976Z,29.30
2019-04-10T14:50:05.291Z,27.47
2019-04-10T14:52:34.846Z,29.52
2019-04-10T14:55:04.567Z,29.43
2019-04-10T14:57:32.978Z,28.34
2019-04-10T15:00:01.205Z,31.29
2019-04-10T15:02:30.577Z,31.76
2019-04-10T15:04:59.545Z,28.96
2019-04-10T15:07:28.885Z,30.51
2019-04-10T15:09:57.197Z,29.07
2019-04-10T15:12:25.481Z,29.87
2019-04-10T15:14:58.270Z,31.11
2019-04-10T15:17:27.178Z,29.48
2019-04-10T15:19:56.521Z,31.43
2019-04-10T15:22:25.501Z,29.98
2019-04-10T15:24:53.969Z,30.51
2019-04-10T15:27:22.194Z,31.93
2019-04-10T15:29:50.582Z,27.87
2019-04-10T15:32:20.418Z,28.03
2019-04-10T15:34:48.676Z,28.75
2019-04-10T15:37:17.211Z,30.84
2019-04-10T15:39:47.179Z,30.95
2019-04-10T15:42:24.891Z,28.66
2019-04-10T15:44:57.091Z,28.85
2019-04-10T15:47:25.295Z,33.21
2019-04-10T15:49:53.606Z,31.27
2019-04-10T15:52:24.917Z,32.28
2019-04-10T15:54:55.458Z,32.20
2019-04-10T15:57:25.498Z,33.04
2019-04-10T15:59:54.623Z,31.28
2019-04-10T16:02:23.723Z,31.12
2019-04-10T16:04:57.181Z,34.82
2019-04-10T16:07:27.323Z,32.53
2019-04-10T16:09:57.974Z,33.59
2019-04-10T16:12:27.433Z,31.18
2019-04-10T16:14:56.972Z,32.08
2019-04-10T16:17:39.922Z,34.18
2019-04-10T16:20:22.100Z,31.98
2019-04-10T16:22:54.809Z,32.59
2019-04-10T16:25:25.579Z,32.83
2019-04-10T16:27:53.965Z,31.61
2019-04-10T16:30:26.249Z,31.58
2019-04-10T16:32:54.374Z,32.54
2019-04-10T16:35:32.482Z,34.65
2019-04-10T16:38:00.199Z,33.33
2019-04-10T16:40:29.836Z,35.45
2019-04-10T16:42:59.246Z,35.91
2019-04-10T16:45:28.643Z,36.90
2019-04-10T16:47:56.874Z,36.94
2019-04-10T16:50:25.842Z,36.28
2019-04-10T16:52:54.069Z,36.08
2019-04-10T16:55:22.784Z,38.82
2019-04-10T16:57:52.203Z,38.15
2019-04-10T17:00:22.249Z,37.23
2019-04-10T17:02:50.815Z,37.17
2019-04-10T17:05:19.029Z,36.85
2019-04-10T17:07:47.527Z,38.72
2019-04-10T17:10:22.346Z,36.02
2019-04-10T17:12:46.849Z,36.60
2019-04-10T17:15:15.722Z,37.96
2019-04-10T17:17:44.445Z,38.59
2019-04-10T17:20:14.014Z,36.64
2019-04-10T17:22:45.988Z,36.85
2019-04-10T17:25:14.347Z,38.90
2019-04-10T17:27:43.564Z,39.00
2019-04-10T17:30:15.706Z,38.67
2019-04-10T17:32:44.665Z,40.11
2019-04-10T17:35:13.688Z,40.24
2019-04-10T17:37:42.250Z,41.11
2019-04-10T17:40:25.448Z,42.02
2019-04-10T17:42:42.265Z,40.37
2019-04-10T17:45:10.470Z,40.85
2019-04-10T17:47:38.920Z,39.40
2019-04-10T17:50:08.778Z,38.51
2019-04-10T17:52:38.110Z,38.69
2019-04-10T17:55:07.407Z,39.21
2019-04-10T17:57:40.211Z,42.03
2019-04-10T18:00:11.077Z,39.91
2019-04-10T18:02:39.322Z,41.55
2019-04-10T18:05:08.513Z,40.44
2019-04-10T18:07:40.547Z,40.98
2019-04-10T18:10:09.004Z,41.55
2019-04-10T18:12:38.373Z,41.38
2019-04-10T18:15:06.640Z,40.38
2019-04-10T18:17:35.416Z,43.65
2019-04-10T18:20:04.890Z,42.18
2019-04-10T18:22:34.330Z,43.96
2019-04-10T18:25:05.450Z,44.32
2019-04-10T18:27:33.733Z,44.13
2019-04-10T18:30:01.962Z,44.50
2019-04-10T18:32:30.172Z,42.81
2019-04-10T18:34:58.392Z,43.46
2019-04-10T18:37:28.579Z,46.04
2019-04-10T18:39:57.033Z,44.07
2019-04-10T18:42:25.331Z,44.24
2019-04-10T18:44:53.558Z,44.99
2019-04-10T18:47:21.871Z,45.04
2019-04-10T18:49:53.982Z,45.37
2019-04-10T18:52:23.361Z,45.50
2019-04-10T18:54:52.019Z,44.28
2019-04-10T18:57:20.344Z,45.20
2019-04-10T19:00:02.082Z,44.84
2019-04-10T19:02:32.829Z,44.09
2019-04-10T19:05:05.697Z,44.81
2019-04-10T19:07:34.345Z,45.43
2019-04-10T19:10:04.309Z,45.18
2019-04-10T19:12:32.827Z,45.33
2019-04-10T19:15:01.069Z,45.17
2019-04-10T19:17:29.365Z,45.22
2019-04-10T19:19:57.579Z,44.68
2019-04-10T19:22:26.730Z,45.57
2019-04-10T19:24:54.928Z,45.16
2019-04-10T19:27:25.052Z,45.74
2019-04-10T19:29:53.048Z,45.53
2019-04-10T19:32:22.922Z,45.32
2019-04-10T19:34:51.803Z,45.17
2019-04-10T19:37:20.642Z,46.24
2019-04-10T19:39:48.850Z,45.72
2019-04-10T19:42:17.437Z,45.83
2019-04-10T19:44:45.677Z,45.24
2019-04-10T19:47:14.550Z,46.00
2019-04-10T19:49:42.895Z,45.00
2019-04-10T19:52:11.979Z,45.16
2019-04-10T19:54:40.882Z,44.74
2019-04-10T19:57:09.063Z,46.49
2019-04-10T19:59:37.287Z,46.01
2019-04-10T20:02:06.649Z,46.25
2019-04-10T20:04:34.958Z,47.16
2019-04-10T20:07:03.161Z,46.15
2019-04-10T20:09:32.569Z,47.65
2019-04-10T20:12:00.957Z,46.20
2019-04-10T20:14:29.150Z,46.15
2019-04-10T20:16:57.657Z,46.38
2019-04-10T20:19:26.637Z,45.90
2019-04-10T20:21:54.855Z,46.88
2019-04-10T20:24:23.060Z,45.92
2019-04-10T20:26:51.813Z,46.29
2019-04-10T20:29:21.154Z,45.96
2019-04-10T20:31:50.640Z,47.02
2019-04-10T20:34:19.133Z,46.69
2019-04-10T20:36:47.437Z,47.05
2019-04-10T20:39:16.876Z,46.68
2019-04-10T20:41:52.001Z,47.35
2019-04-10T20:44:15.166Z,47.26
2019-04-10T20:46:46.637Z,47.93
2019-04-10T20:49:14.771Z,49.10
2019-04-10T20:51:43.938Z,48.06
2019-04-10T20:54:12.771Z,47.77
2019-04-10T20:56:41.112Z,47.06
2019-04-10T20:59:09.962Z,48.44
2019-04-10T21:01:39.287Z,47.79
2019-04-10T21:04:07.577Z,48.46
2019-04-10T21:06:36.418Z,48.72
2019-04-10T21:09:07.501Z,48.64
2019-04-10T21:11:35.699Z,48.82
2019-04-10T21:14:05.230Z,49.25
2019-04-10T21:16:33.677Z,49.22
2019-04-10T21:19:02.372Z,49.58
2019-04-10T21:21:30.784Z,50.42
2019-04-10T21:23:58.949Z,49.82
2019-04-10T21:26:28.213Z,50.16
2019-04-10T21:28:56.760Z,50.58
2019-04-10T21:31:42.826Z,51.17
2019-04-10T21:34:21.865Z,51.52
2019-04-10T21:36:50.983Z,50.25
2019-04-10T21:39:22.887Z,51.31
2019-04-10T21:41:51.088Z,51.28
2019-04-10T21:44:20.391Z,51.13
2019-04-10T21:46:50.416Z,50.95
2019-04-10T21:49:19.639Z,51.20
2019-04-10T21:51:48.093Z,51.20
2019-04-10T21:54:16.371Z,51.73
2019-04-10T21:56:45.116Z,52.20
2019-04-10T21:59:16.021Z,51.87
2019-04-10T22:01:43.360Z,52.47
2019-04-10T22:04:11.642Z,52.83
2019-04-10T22:06:41.485Z,51.96
2019-04-10T22:09:28.594Z,52.44
2019-04-10T22:11:58.468Z,51.99
2019-04-10T22:14:26.636Z,52.06
2019-04-10T22:16:54.841Z,52.54
2019-04-10T22:19:24.446Z,52.09
2019-04-10T22:21:53.667Z,51.92
2019-04-10T22:24:21.954Z,54.22
2019-04-10T22:26:50.193Z,53.43
2019-04-10T22:29:19.503Z,52.58
2019-04-10T22:31:47.790Z,52.76
2019-04-10T22:34:17.071Z,52.88
2019-04-10T22:36:45.372Z,52.85
2019-04-10T22:39:15.226Z,53.48
2019-04-10T22:41:43.500Z,53.44
2019-04-10T22:44:11.830Z,53.20
2019-04-10T22:46:40.466Z,53.78
2019-04-10T22:49:08.685Z,53.88
2019-04-10T22:51:37.698Z,54.62
2019-04-10T22:54:06.119Z,54.66
2019-04-10T22:56:34.405Z,54.45
2019-04-10T22:59:03.855Z,54.55
2019-04-10T23:01:33.315Z,54.57
2019-04-10T23:04:01.774Z,53.88
2019-04-10T23:06:29.974Z,54.22
2019-04-10T23:08:58.171Z,54.46
2019-04-10T23:11:33.505Z,54.71
2019-04-10T23:13:56.420Z,54.93
2019-04-10T23:16:24.613Z,55.33
2019-04-10T23:18:53.864Z,54.94
2019-04-10T23:21:22.821Z,56.17
2019-04-10T23:23:51.632Z,55.12
2019-04-10T23:26:20.765Z,56.22
2019-04-10T23:28:49.792Z,55.48
2019-04-10T23:31:17.999Z,55.74
2019-04-10T23:33:46.208Z,56.70
2019-04-10T23:36:14.421Z,56.61
2019-04-10T23:38:43.709Z,57.07
2019-04-10T23:41:12.012Z,56.63
2019-04-10T23:43:40.203Z,56.76
2019-04-10T23:46:08.445Z,57.13
2019-04-10T23:48:37.107Z,57.55
2019-04-10T23:51:05.317Z,57.24
2019-04-10T23:53:33.531Z,57.65
2019-04-10T23:56:02.145Z,58.22
2019-04-10T23:58:30.430Z,58.57
